createdAt,value
2022-12-20T00:00:57.940Z,98979.34
2022-12-20T00:02:03.994Z,98975.81
2022-12-20T00:03:07.466Z,98971.09
2022-12-20T00:04:15.702Z,98950.88
2022-12-20T00:05:19.942Z,98974.88
2022-12-20T00:06:27.614Z,98962.75
2022-12-20T00:07:31.101Z,98950.88
2022-12-20T00:08:38.333Z,98961.16
2022-12-20T00:09:41.764Z,98961.66
2022-12-20T00:10:51.207Z,98949.16
2022-12-20T00:11:54.769Z,98955.81
2022-12-20T00:13:00.807Z,98959.03
2022-12-20T00:14:04.266Z,98961.63
2022-12-20T00:15:11.391Z,98964.19
2022-12-20T00:16:19.454Z,98943.53
2022-12-20T00:17:25.795Z,98957.94
2022-12-20T00:18:29.240Z,98949.16
2022-12-20T00:19:35.233Z,98956.94
2022-12-20T00:20:38.748Z,98955.16
2022-12-20T00:21:45.503Z,98949.91
2022-12-20T00:22:49.597Z,98946.66
2022-12-20T00:24:01.573Z,98947.47
2022-12-20T00:25:05.989Z,98943.94
2022-12-20T00:26:17.559Z,98948.16
2022-12-20T00:27:22.383Z,98951.59
2022-12-20T00:28:28.491Z,98956.81
2022-12-20T00:29:35.403Z,98953.06
2022-12-20T00:30:38.792Z,98952.94
2022-12-20T00:31:44.996Z,98947.97
2022-12-20T00:32:49.317Z,98947.72
2022-12-20T00:33:58.742Z,98952.88
2022-12-20T00:35:02.000Z,98953.53
2022-12-20T00:36:09.790Z,98951.41
2022-12-20T00:37:13.153Z,98948.69
2022-12-20T00:38:20.197Z,98950.56
2022-12-20T00:39:23.380Z,98951.41
2022-12-20T00:40:29.384Z,98947.38
2022-12-20T00:41:36.450Z,98942.06
2022-12-20T00:42:42.390Z,98947.28
2022-12-20T00:43:47.556Z,98943.56
2022-12-20T00:44:53.534Z,98942.88
2022-12-20T00:45:57.332Z,98937.66
2022-12-20T00:47:03.365Z,98940.28
2022-12-20T00:48:07.283Z,98938.34
2022-12-20T00:49:14.448Z,98943.47
2022-12-20T00:50:18.051Z,98938.41
2022-12-20T00:51:27.679Z,98937.66
2022-12-20T00:52:31.178Z,98930.94
2022-12-20T00:53:38.038Z,98933.88
2022-12-20T00:54:42.456Z,98934.31
2022-12-20T00:55:50.301Z,98913.22
2022-12-20T00:56:58.757Z,98915.16
2022-12-20T00:58:02.003Z,98905.72
2022-12-20T00:59:07.851Z,98906.84
2022-12-20T01:00:13.498Z,98896.81
2022-12-20T01:01:24.226Z,98892.63
2022-12-20T01:02:27.900Z,98896.59
2022-12-20T01:03:34.117Z,98901.75
2022-12-20T01:04:38.631Z,98913.69
2022-12-20T01:05:54.770Z,98930.78
2022-12-20T01:06:58.611Z,98939.66
2022-12-20T01:08:04.950Z,98949.22
2022-12-20T01:09:08.291Z,98956.09
2022-12-20T01:10:15.221Z,98957.88
2022-12-20T01:11:23.097Z,98942.56
2022-12-20T01:12:31.540Z,98935.94
2022-12-20T01:13:39.045Z,98934.16
2022-12-20T01:14:45.369Z,98928.28
2022-12-20T01:15:49.986Z,98937.47
2022-12-20T01:16:57.315Z,98936.47
2022-12-20T01:18:01.074Z,98938.75
2022-12-20T01:19:08.081Z,98938.63
2022-12-20T01:20:12.727Z,98940.25
2022-12-20T01:21:22.042Z,98936.13
2022-12-20T01:22:26.239Z,98924.69
2022-12-20T01:23:32.746Z,98937.16
2022-12-20T01:24:38.634Z,98947.78
2022-12-20T01:25:41.902Z,98953.50
2022-12-20T01:26:49.325Z,98952.91
2022-12-20T01:27:57.952Z,98943.88
2022-12-20T01:29:04.321Z,98938.47
2022-12-20T01:30:10.468Z,98938.47
2022-12-20T01:31:20.408Z,98929.50
2022-12-20T01:32:23.788Z,98930.28
2022-12-20T01:33:30.801Z,98928.69
2022-12-20T01:34:34.235Z,98930.34
2022-12-20T01:35:40.166Z,98924.84
2022-12-20T01:36:43.519Z,98916.22
2022-12-20T01:37:49.614Z,98931.16
2022-12-20T01:38:58.479Z,98923.06
2022-12-20T01:40:04.445Z,98923.78
2022-12-20T01:41:08.621Z,98915.47
2022-12-20T01:42:18.020Z,98917.00
2022-12-20T01:43:25.714Z,98909.22
2022-12-20T01:45:10.850Z,98906.44
2022-12-20T01:46:14.349Z,98905.09
2022-12-20T01:47:21.545Z,98916.22
2022-12-20T01:48:27.739Z,98910.16
2022-12-20T01:49:41.630Z,98909.75
2022-12-20T01:50:45.528Z,98903.78
2022-12-20T01:51:59.441Z,98899.56
2022-12-20T01:53:06.051Z,98897.56
2022-12-20T01:54:22.208Z,98892.25
2022-12-20T01:55:30.746Z,98886.75
2022-12-20T01:56:39.320Z,98884.97
2022-12-20T01:57:52.061Z,98885.22
2022-12-20T01:59:03.851Z,98874.31
2022-12-20T02:00:10.099Z,98871.47
2022-12-20T02:01:23.453Z,98867.47
2022-12-20T02:02:28.189Z,98865.88
2022-12-20T02:03:35.970Z,98878.00
2022-12-20T02:04:39.818Z,98878.41
2022-12-20T02:05:49.788Z,98871.50
2022-12-20T02:06:54.554Z,98873.19
2022-12-20T02:08:01.236Z,98886.09
2022-12-20T02:09:08.702Z,98887.28
2022-12-20T02:10:16.655Z,98896.56
2022-12-20T02:12:03.989Z,98902.69
2022-12-20T02:13:35.406Z,98906.47
2022-12-20T02:15:09.820Z,98910.09
2022-12-20T02:16:25.230Z,98907.81
2022-12-20T02:17:53.392Z,98907.50
2022-12-20T02:19:18.008Z,98919.72
2022-12-20T02:21:01.319Z,98898.56
2022-12-20T02:22:26.531Z,98890.03
2022-12-20T02:24:04.864Z,98894.22
2022-12-20T02:25:49.562Z,98888.44
2022-12-20T02:27:46.509Z,98896.19
2022-12-20T02:29:23.896Z,98883.13
2022-12-20T02:30:47.464Z,98893.78
2022-12-20T02:32:05.369Z,98890.41
2022-12-20T02:33:17.524Z,98884.28
2022-12-20T02:34:26.302Z,98875.50
2022-12-20T02:35:36.322Z,98873.56
2022-12-20T02:36:40.255Z,98884.16
2022-12-20T02:38:00.830Z,98868.19
2022-12-20T02:39:05.132Z,98868.53
2022-12-20T02:40:13.570Z,98858.56
2022-12-20T02:41:25.918Z,98871.56
2022-12-20T02:42:36.955Z,98877.63
2022-12-20T02:44:01.405Z,98883.69
2022-12-20T02:45:18.384Z,98884.47
2022-12-20T02:46:31.008Z,98890.59
2022-12-20T02:47:43.104Z,98885.09
2022-12-20T02:48:54.929Z,98879.16
2022-12-20T02:49:59.072Z,98889.28
2022-12-20T02:51:11.736Z,98875.47
2022-12-20T02:52:18.333Z,98854.84
2022-12-20T02:53:26.627Z,98878.34
2022-12-20T02:54:31.233Z,98868.25
2022-12-20T02:55:51.097Z,98881.88
2022-12-20T02:57:06.679Z,98887.59
2022-12-20T02:58:29.504Z,98887.38
2022-12-20T02:59:45.576Z,98892.16
2022-12-20T03:00:59.701Z,98887.84
2022-12-20T03:02:09.034Z,98874.78
2022-12-20T03:03:25.231Z,98869.84
2022-12-20T03:04:38.161Z,98868.56
2022-12-20T03:05:48.090Z,98862.44
2022-12-20T03:07:05.143Z,98854.44
2022-12-20T03:08:09.532Z,98853.63
2022-12-20T03:09:15.431Z,98859.41
2022-12-20T03:10:20.677Z,98871.28
2022-12-20T03:11:26.823Z,98866.06
2022-12-20T03:12:30.251Z,98861.94
2022-12-20T03:13:37.022Z,98872.31
2022-12-20T03:14:44.750Z,98867.16
2022-12-20T03:15:53.086Z,98876.00
2022-12-20T03:16:56.691Z,98866.44
2022-12-20T03:18:05.457Z,98872.75
2022-12-20T03:19:09.659Z,98869.53
2022-12-20T03:20:16.322Z,98860.19
2022-12-20T03:21:19.934Z,98852.19
2022-12-20T03:22:26.280Z,98851.25
2022-12-20T03:23:29.684Z,98865.25
2022-12-20T03:24:36.845Z,98864.72
2022-12-20T03:25:44.905Z,98861.34
2022-12-20T03:26:57.259Z,98864.53
2022-12-20T03:28:01.536Z,98861.66
2022-12-20T03:29:08.557Z,98850.56
2022-12-20T03:30:15.330Z,98848.59
2022-12-20T03:31:21.503Z,98845.16
2022-12-20T03:32:28.539Z,98849.22
2022-12-20T03:33:37.491Z,98851.66
2022-12-20T03:34:43.472Z,98855.97
2022-12-20T03:35:52.186Z,98844.84
2022-12-20T03:36:55.607Z,98840.00
2022-12-20T03:38:01.543Z,98847.50
2022-12-20T03:39:05.577Z,98836.97
2022-12-20T03:40:17.360Z,98845.56
2022-12-20T03:41:23.999Z,98850.28
2022-12-20T03:42:32.096Z,98855.88
2022-12-20T03:43:35.530Z,98860.66
2022-12-20T03:44:41.798Z,98846.66
2022-12-20T03:45:46.043Z,98852.44
2022-12-20T03:46:52.738Z,98847.66
2022-12-20T03:47:57.430Z,98846.19
2022-12-20T03:49:08.900Z,98835.97
2022-12-20T03:50:20.244Z,98847.84
2022-12-20T03:51:26.243Z,98844.47
2022-12-20T03:52:30.378Z,98850.38
2022-12-20T03:53:36.702Z,98845.91
2022-12-20T03:54:40.326Z,98848.34
2022-12-20T03:55:53.103Z,98851.88
2022-12-20T03:56:56.576Z,98850.84
2022-12-20T03:58:03.457Z,98852.75
2022-12-20T03:59:12.449Z,98851.22
2022-12-20T04:00:20.869Z,98854.59
2022-12-20T04:01:36.805Z,98856.44
2022-12-20T04:02:40.816Z,98835.16
2022-12-20T04:03:49.593Z,98848.53
2022-12-20T04:04:58.330Z,98857.09
2022-12-20T04:06:02.092Z,98861.41
2022-12-20T04:07:08.026Z,98855.44
2022-12-20T04:08:13.459Z,98852.88
2022-12-20T04:09:20.309Z,98849.81
2022-12-20T04:10:28.771Z,98858.31
2022-12-20T04:11:36.175Z,98844.41
2022-12-20T04:12:44.193Z,98856.25
2022-12-20T04:13:55.966Z,98852.41
2022-12-20T04:15:00.638Z,98850.56
2022-12-20T04:16:08.949Z,98851.41
2022-12-20T04:17:12.273Z,98846.19
2022-12-20T04:18:20.201Z,98842.72
2022-12-20T04:19:27.019Z,98845.16
2022-12-20T04:20:33.988Z,98835.31
2022-12-20T04:22:02.670Z,98851.84
2022-12-20T04:23:16.398Z,98855.78
2022-12-20T04:24:23.687Z,98858.72
2022-12-20T04:25:47.061Z,98855.38
2022-12-20T04:26:55.345Z,98859.03
2022-12-20T04:27:58.729Z,98852.31
2022-12-20T04:29:04.929Z,98863.72
2022-12-20T04:30:11.962Z,98870.47
2022-12-20T04:31:23.779Z,98861.19
2022-12-20T04:32:28.845Z,98861.19
2022-12-20T04:33:35.609Z,98861.34
2022-12-20T04:34:39.016Z,98858.50
2022-12-20T04:35:47.697Z,98869.47
2022-12-20T04:36:51.921Z,98858.00
2022-12-20T04:38:07.926Z,98864.91
2022-12-20T04:39:11.231Z,98855.63
2022-12-20T04:40:27.721Z,98858.31
2022-12-20T04:41:36.804Z,98855.97
2022-12-20T04:42:46.637Z,98863.31
2022-12-20T04:43:57.610Z,98854.69
2022-12-20T04:45:08.596Z,98871.06
2022-12-20T04:46:14.552Z,98865.06
2022-12-20T04:47:17.907Z,98855.47
2022-12-20T04:49:48.385Z,98848.66
2022-12-20T04:50:59.285Z,98855.97
2022-12-20T04:52:18.603Z,98854.63
2022-12-20T04:53:39.262Z,98862.78
2022-12-20T04:54:42.820Z,98856.22
2022-12-20T04:55:56.021Z,98858.41
2022-12-20T04:57:00.384Z,98859.81
2022-12-20T04:58:07.892Z,98856.38
2022-12-20T04:59:17.004Z,98855.97
2022-12-20T05:00:23.373Z,98837.84
2022-12-20T05:01:37.888Z,98849.25
2022-12-20T05:02:41.959Z,98831.88
2022-12-20T05:03:52.312Z,98847.19
2022-12-20T05:04:57.128Z,98839.88
2022-12-20T05:06:05.802Z,98830.94
2022-12-20T05:07:09.865Z,98830.50
2022-12-20T05:08:18.577Z,98838.53
2022-12-20T05:09:26.489Z,98837.69
2022-12-20T05:10:32.757Z,98845.59
2022-12-20T05:11:41.047Z,98834.31
2022-12-20T05:12:45.869Z,98843.63
2022-12-20T05:14:00.123Z,98838.22
2022-12-20T05:15:03.565Z,98839.94
2022-12-20T05:16:10.987Z,98836.63
2022-12-20T05:17:15.012Z,98830.50
2022-12-20T05:18:21.103Z,98834.53
2022-12-20T05:19:32.033Z,98819.53
2022-12-20T05:20:39.355Z,98823.13
2022-12-20T05:22:12.785Z,98829.47
2022-12-20T05:23:34.921Z,98831.66
2022-12-20T05:25:03.263Z,98829.88
2022-12-20T05:26:24.824Z,98828.47
2022-12-20T05:27:32.561Z,98828.78
2022-12-20T05:28:37.636Z,98836.75
2022-12-20T05:29:43.823Z,98837.41
2022-12-20T05:30:47.274Z,98838.22
2022-12-20T05:31:55.928Z,98834.38
2022-12-20T05:33:00.613Z,98841.97
2022-12-20T05:34:07.492Z,98836.34
2022-12-20T05:35:13.239Z,98832.47
2022-12-20T05:36:19.606Z,98831.34
2022-12-20T05:37:27.397Z,98827.38
2022-12-20T05:38:36.745Z,98818.34
2022-12-20T05:39:46.865Z,98822.00
2022-12-20T05:40:58.792Z,98820.66
2022-12-20T05:42:02.810Z,98823.03
2022-12-20T05:43:09.279Z,98826.28
2022-12-20T05:44:22.483Z,98817.22
2022-12-20T05:45:29.188Z,98811.63
2022-12-20T05:46:41.010Z,98813.03
2022-12-20T05:47:49.381Z,98816.03
2022-12-20T05:48:55.702Z,98809.09
2022-12-20T05:50:01.334Z,98805.75
2022-12-20T05:51:12.526Z,98805.63
2022-12-20T05:52:38.705Z,98807.41
2022-12-20T05:53:45.563Z,98802.28
2022-12-20T05:54:50.528Z,98809.00
2022-12-20T05:55:58.897Z,98797.34
2022-12-20T05:57:06.226Z,98797.91
2022-12-20T05:58:16.502Z,98797.97
2022-12-20T05:59:31.460Z,98800.22
2022-12-20T06:00:34.910Z,98806.41
2022-12-20T06:01:41.944Z,98795.00
2022-12-20T06:02:46.010Z,98796.91
2022-12-20T06:03:53.022Z,98802.19
2022-12-20T06:04:59.334Z,98787.28
2022-12-20T06:06:10.118Z,98793.53
2022-12-20T06:07:19.740Z,98794.63
2022-12-20T06:08:32.053Z,98790.72
2022-12-20T06:09:37.556Z,98793.78
2022-12-20T06:10:47.159Z,98806.09
2022-12-20T06:11:51.713Z,98803.56
2022-12-20T06:12:58.545Z,98799.94
2022-12-20T06:14:02.705Z,98793.38
2022-12-20T06:15:11.088Z,98800.81
2022-12-20T06:16:20.903Z,98804.19
2022-12-20T06:17:24.482Z,98811.66
2022-12-20T06:18:32.388Z,98807.06
2022-12-20T06:19:40.344Z,98801.00
2022-12-20T06:20:53.857Z,98803.44
2022-12-20T06:22:01.387Z,98800.06
2022-12-20T06:23:27.677Z,98802.75
2022-12-20T06:24:48.553Z,98812.16
2022-12-20T06:25:58.256Z,98804.50
2022-12-20T06:27:07.255Z,98808.72
2022-12-20T06:28:13.410Z,98805.94
2022-12-20T06:29:17.776Z,98824.31
2022-12-20T06:30:34.086Z,98814.53
2022-12-20T06:31:58.124Z,98815.81
2022-12-20T06:33:06.041Z,98815.91
2022-12-20T06:34:09.597Z,98809.66
2022-12-20T06:35:20.418Z,98805.28
2022-12-20T06:36:28.861Z,98813.38
2022-12-20T06:37:32.563Z,98808.16
2022-12-20T06:38:38.734Z,98810.69
2022-12-20T06:39:44.909Z,98802.59
2022-12-20T06:40:50.927Z,98790.97
2022-12-20T06:41:55.347Z,98800.63
2022-12-20T06:43:01.392Z,98814.47
2022-12-20T06:44:05.312Z,98787.44
2022-12-20T06:45:13.427Z,98810.25
2022-12-20T06:46:17.517Z,98805.59
2022-12-20T06:47:25.376Z,98806.44
2022-12-20T06:48:28.801Z,98807.38
2022-12-20T06:49:35.331Z,98812.50
2022-12-20T06:50:52.094Z,98800.09
2022-12-20T06:52:01.907Z,98818.22
2022-12-20T06:53:20.136Z,98816.19
2022-12-20T06:54:23.531Z,98810.97
2022-12-20T06:55:32.615Z,98810.78
2022-12-20T06:56:41.091Z,98820.13
2022-12-20T06:57:49.270Z,98812.66
2022-12-20T06:58:53.510Z,98823.75
2022-12-20T06:59:59.589Z,98814.16
2022-12-20T07:01:03.259Z,98787.22
2022-12-20T07:02:09.698Z,98802.97
2022-12-20T07:03:16.774Z,98800.69
2022-12-20T07:04:21.545Z,98795.44
2022-12-20T07:05:27.756Z,98787.72
2022-12-20T07:06:31.232Z,98802.28
2022-12-20T07:07:44.572Z,98804.81
2022-12-20T07:08:51.225Z,98808.84
2022-12-20T07:09:57.951Z,98805.75
2022-12-20T07:11:12.163Z,98817.69
2022-12-20T07:12:15.473Z,98811.44
2022-12-20T07:13:21.770Z,98814.56
2022-12-20T07:14:27.836Z,98807.75
2022-12-20T07:15:32.620Z,98811.00
2022-12-20T07:16:39.124Z,98817.06
2022-12-20T07:17:44.980Z,98819.94
2022-12-20T07:18:50.904Z,98815.47
2022-12-20T07:19:56.931Z,98815.59
2022-12-20T07:21:02.656Z,98805.69
2022-12-20T07:22:09.239Z,98809.22
2022-12-20T07:23:12.622Z,98813.63
2022-12-20T07:24:19.166Z,98814.28
2022-12-20T07:25:22.846Z,98812.09
2022-12-20T07:26:32.273Z,98815.28
2022-12-20T07:27:35.983Z,98815.59
2022-12-20T07:28:43.305Z,98800.91
2022-12-20T07:29:49.347Z,98803.56
2022-12-20T07:30:53.108Z,98809.47
2022-12-20T07:32:00.025Z,98811.00
2022-12-20T07:33:03.379Z,98810.28
2022-12-20T07:34:09.463Z,98810.28
2022-12-20T07:35:17.279Z,98815.41
2022-12-20T07:36:23.419Z,98809.84
2022-12-20T07:37:32.159Z,98807.78
2022-12-20T07:38:38.543Z,98810.13
2022-12-20T07:39:44.743Z,98816.03
2022-12-20T07:40:48.165Z,98812.75
2022-12-20T07:42:00.177Z,98819.38
2022-12-20T07:43:04.474Z,98815.75
2022-12-20T07:44:10.385Z,98808.84
2022-12-20T07:45:13.680Z,98811.25
2022-12-20T07:46:21.770Z,98804.91
2022-12-20T07:47:27.889Z,98800.88
2022-12-20T07:48:36.344Z,98799.69
2022-12-20T07:49:43.283Z,98788.28
2022-12-20T07:50:47.233Z,98794.16
2022-12-20T07:52:01.003Z,98789.97
2022-12-20T07:53:12.564Z,98801.94
2022-12-20T07:54:27.392Z,98807.72
2022-12-20T07:55:32.534Z,98805.00
2022-12-20T07:56:46.070Z,98812.50
2022-12-20T07:58:05.132Z,98810.16
2022-12-20T07:59:15.628Z,98820.81
2022-12-20T08:00:23.230Z,98797.84
2022-12-20T08:01:32.174Z,98802.78
2022-12-20T08:02:47.566Z,98806.03
2022-12-20T08:04:03.616Z,98792.97
2022-12-20T08:05:14.009Z,98795.00
2022-12-20T08:06:23.037Z,98791.66
2022-12-20T08:07:33.270Z,98801.38
2022-12-20T08:08:46.338Z,98801.19
2022-12-20T08:09:52.563Z,98797.25
2022-12-20T08:10:59.437Z,98790.44
2022-12-20T08:12:07.516Z,98782.88
2022-12-20T08:13:14.409Z,98800.66
2022-12-20T08:14:24.791Z,98785.41
2022-12-20T08:15:30.419Z,98794.94
2022-12-20T08:16:36.427Z,98788.69
2022-12-20T08:17:40.504Z,98791.31
2022-12-20T08:18:46.516Z,98794.84
2022-12-20T08:19:52.676Z,98784.75
2022-12-20T08:20:59.440Z,98793.16
2022-12-20T08:22:05.556Z,98799.69
2022-12-20T08:23:12.260Z,98806.16
2022-12-20T08:24:18.154Z,98797.75
2022-12-20T08:25:25.134Z,98797.44
2022-12-20T08:26:31.188Z,98795.13
2022-12-20T08:27:37.426Z,98794.25
2022-12-20T08:28:47.367Z,98807.44
2022-12-20T08:29:50.826Z,98807.34
2022-12-20T08:30:56.898Z,98809.13
2022-12-20T08:32:02.976Z,98802.41
2022-12-20T08:33:09.103Z,98790.13
2022-12-20T08:34:15.933Z,98793.41
2022-12-20T08:35:21.994Z,98787.88
2022-12-20T08:36:25.412Z,98789.00
2022-12-20T08:37:31.461Z,98785.53
2022-12-20T08:38:37.919Z,98782.03
2022-12-20T08:39:44.626Z,98794.16
2022-12-20T08:40:48.055Z,98784.25
2022-12-20T08:41:54.046Z,98781.41
2022-12-20T08:42:58.863Z,98784.09
2022-12-20T08:44:07.846Z,98784.97
2022-12-20T08:45:15.541Z,98790.66
2022-12-20T08:46:21.610Z,98781.47
2022-12-20T08:47:24.974Z,98788.41
2022-12-20T08:48:32.701Z,98782.94
2022-12-20T08:49:43.972Z,98794.03
2022-12-20T08:51:01.406Z,98789.97
2022-12-20T08:52:07.656Z,98792.56
2022-12-20T08:53:13.602Z,98793.94
2022-12-20T08:54:19.798Z,98794.16
2022-12-20T08:55:29.414Z,98788.50
2022-12-20T08:56:36.508Z,98784.03
2022-12-20T08:57:42.404Z,98793.03
2022-12-20T08:58:46.655Z,98791.25
2022-12-20T08:59:55.211Z,98794.00
2022-12-20T09:01:06.670Z,98795.16
2022-12-20T09:02:13.948Z,98804.84
2022-12-20T09:03:20.077Z,98791.59
2022-12-20T09:04:26.055Z,98798.63
2022-12-20T09:05:32.066Z,98797.91
2022-12-20T09:06:38.813Z,98805.25
2022-12-20T09:07:45.597Z,98805.34
2022-12-20T09:08:49.902Z,98794.63
2022-12-20T09:09:55.895Z,98798.00
2022-12-20T09:11:09.537Z,98794.66
2022-12-20T09:12:13.109Z,98797.06
2022-12-20T09:13:20.173Z,98791.28
2022-12-20T09:14:26.128Z,98792.75
2022-12-20T09:15:36.595Z,98789.09
2022-12-20T09:16:42.602Z,98785.50
2022-12-20T09:17:48.526Z,98782.16
2022-12-20T09:19:00.742Z,98778.59
2022-12-20T09:20:12.065Z,98774.91
2022-12-20T09:21:22.019Z,98772.09
2022-12-20T09:22:28.104Z,98778.25
2022-12-20T09:23:33.091Z,98777.53
2022-12-20T09:24:41.519Z,98777.34
2022-12-20T09:25:50.226Z,98775.53
2022-12-20T09:27:00.049Z,98778.47
2022-12-20T09:28:06.178Z,98780.78
2022-12-20T09:29:12.320Z,98778.78
2022-12-20T09:30:19.740Z,98786.13
2022-12-20T09:31:30.012Z,98783.41
2022-12-20T09:32:33.676Z,98779.22
2022-12-20T09:33:39.716Z,98776.56
2022-12-20T09:34:43.203Z,98772.91
2022-12-20T09:35:50.716Z,98774.47
2022-12-20T09:36:54.191Z,98773.75
2022-12-20T09:38:01.497Z,98768.09
2022-12-20T09:39:07.798Z,98773.34
2022-12-20T09:40:21.291Z,98752.22
2022-12-20T09:41:37.450Z,98752.16
2022-12-20T09:42:44.239Z,98758.44
2022-12-20T09:43:48.148Z,98764.63
2022-12-20T09:44:54.657Z,98759.06
2022-12-20T09:46:04.960Z,98742.28
2022-12-20T09:47:23.747Z,98742.91
2022-12-20T09:48:36.802Z,98725.09
2022-12-20T09:49:49.054Z,98725.81
2022-12-20T09:51:15.830Z,98721.59
2022-12-20T09:52:50.743Z,98711.38
2022-12-20T09:54:18.517Z,98703.72
2022-12-20T09:55:37.874Z,98701.75
2022-12-20T09:57:04.580Z,98701.59
2022-12-20T09:58:45.969Z,98704.13
2022-12-20T09:59:52.210Z,98710.16
2022-12-20T10:00:58.404Z,98705.13
2022-12-20T10:02:19.487Z,98710.66
2022-12-20T10:03:39.015Z,98716.66
2022-12-20T10:04:45.539Z,98721.94
2022-12-20T10:05:57.767Z,98721.09
2022-12-20T10:07:39.253Z,98732.19
2022-12-20T10:08:56.439Z,98746.81
2022-12-20T10:10:35.766Z,98734.72
2022-12-20T10:12:07.208Z,98746.78
2022-12-20T10:13:49.657Z,98745.69
2022-12-20T10:15:21.865Z,98745.16
2022-12-20T10:16:48.021Z,98744.44
2022-12-20T10:18:19.847Z,98731.59
2022-12-20T10:20:08.742Z,98734.41
2022-12-20T10:21:35.816Z,98729.16
2022-12-20T10:22:55.643Z,98731.81
2022-12-20T10:24:07.317Z,98733.53
2022-12-20T10:25:23.513Z,98726.72
2022-12-20T10:26:31.679Z,98727.28
2022-12-20T10:27:39.001Z,98716.78
2022-12-20T10:28:50.753Z,98719.03
2022-12-20T10:30:00.913Z,98715.47
2022-12-20T10:31:14.316Z,98706.53
2022-12-20T10:32:29.333Z,98714.34
2022-12-20T10:33:33.924Z,98701.53
2022-12-20T10:34:48.473Z,98692.50
2022-12-20T10:35:52.580Z,98688.94
2022-12-20T10:37:16.898Z,98688.72
2022-12-20T10:38:23.070Z,98677.78
2022-12-20T10:39:46.202Z,98686.91
2022-12-20T10:41:23.035Z,98683.72
2022-12-20T10:42:43.496Z,98684.16
2022-12-20T10:43:57.753Z,98678.06
2022-12-20T10:45:02.804Z,98680.91
2022-12-20T10:46:12.917Z,98681.94
2022-12-20T10:47:40.930Z,98674.72
2022-12-20T10:48:51.933Z,98673.56
2022-12-20T10:50:18.174Z,98675.78
2022-12-20T10:51:26.057Z,98670.94
2022-12-20T10:52:29.736Z,98674.53
2022-12-20T10:53:36.076Z,98667.38
2022-12-20T10:54:46.528Z,98654.38
2022-12-20T10:55:52.279Z,98653.75
2022-12-20T10:57:02.402Z,98654.06
2022-12-20T10:58:18.512Z,98658.91
2022-12-20T10:59:39.888Z,98658.47
2022-12-20T11:00:47.532Z,98662.16
2022-12-20T11:01:52.263Z,98656.16
2022-12-20T11:03:13.499Z,98652.03
2022-12-20T11:04:32.568Z,98649.53
2022-12-20T11:05:39.010Z,98651.59
2022-12-20T11:06:48.658Z,98645.22
2022-12-20T11:09:32.715Z,98645.53
2022-12-20T11:10:36.545Z,98646.19
2022-12-20T11:11:42.567Z,98652.34
2022-12-20T11:12:56.938Z,98655.06
2022-12-20T11:14:18.892Z,98645.16
2022-12-20T11:15:34.176Z,98640.00
2022-12-20T11:16:44.712Z,98635.41
2022-12-20T11:17:53.761Z,98631.00
2022-12-20T11:19:25.375Z,98624.25
2022-12-20T11:20:48.490Z,98625.38
2022-12-20T11:22:12.712Z,98625.22
2022-12-20T11:23:38.864Z,98631.06
2022-12-20T11:25:02.768Z,98647.38
2022-12-20T11:26:39.430Z,98638.34
2022-12-20T11:28:09.351Z,98638.72
2022-12-20T11:29:50.723Z,98648.06
2022-12-20T11:31:18.887Z,98650.38
2022-12-20T11:32:53.324Z,98648.25
2022-12-20T11:34:20.040Z,98636.97
2022-12-20T11:35:42.078Z,98632.91
2022-12-20T11:37:20.692Z,98635.81
2022-12-20T11:38:45.670Z,98641.53
2022-12-20T11:40:24.840Z,98622.41
2022-12-20T11:41:47.813Z,98637.13
2022-12-20T11:43:17.462Z,98626.00
2022-12-20T11:44:55.357Z,98622.16
2022-12-20T11:46:31.045Z,98627.91
2022-12-20T11:48:10.071Z,98628.63
2022-12-20T11:50:03.153Z,98630.91
2022-12-20T11:51:27.169Z,98631.09
2022-12-20T11:52:49.738Z,98636.94
2022-12-20T11:54:13.791Z,98625.50
2022-12-20T11:55:27.901Z,98618.28
2022-12-20T11:56:44.770Z,98613.75
2022-12-20T11:58:21.074Z,98617.69
2022-12-20T11:59:40.676Z,98619.16
2022-12-20T12:00:59.276Z,98613.63
2022-12-20T12:02:16.167Z,98618.19
2022-12-20T12:03:30.856Z,98606.22
2022-12-20T12:04:47.072Z,98617.63
2022-12-20T12:05:59.205Z,98617.66
2022-12-20T12:07:16.641Z,98619.75
2022-12-20T12:08:34.530Z,98615.09
2022-12-20T12:09:51.278Z,98616.94
2022-12-20T12:11:25.719Z,98621.16
2022-12-20T12:12:45.669Z,98617.22
2022-12-20T12:13:51.476Z,98616.50
2022-12-20T12:15:14.317Z,98623.19
2022-12-20T12:16:30.882Z,98625.03
2022-12-20T12:17:50.361Z,98623.59
2022-12-20T12:18:56.948Z,98612.13
2022-12-20T12:20:29.925Z,98610.94
2022-12-20T12:21:45.836Z,98609.06
2022-12-20T12:23:01.713Z,98602.66
2022-12-20T12:24:26.983Z,98603.38
2022-12-20T12:25:30.436Z,98608.91
2022-12-20T12:26:41.212Z,98612.88
2022-12-20T12:27:48.724Z,98607.22
2022-12-20T12:28:57.274Z,98610.00
2022-12-20T12:30:03.447Z,98607.84
2022-12-20T12:31:21.676Z,98602.50
2022-12-20T12:32:44.134Z,98607.72
2022-12-20T12:34:08.807Z,98599.56
2022-12-20T12:35:56.292Z,98599.31
2022-12-20T12:37:51.160Z,98591.78
2022-12-20T12:39:49.530Z,98593.16
2022-12-20T12:41:43.277Z,98588.84
2022-12-20T12:43:39.083Z,98587.41
2022-12-20T12:44:57.748Z,98571.47
2022-12-20T12:46:14.675Z,98566.44
2022-12-20T12:47:39.900Z,98574.38
2022-12-20T12:48:57.698Z,98579.41
2022-12-20T12:50:08.246Z,98574.06
2022-12-20T12:51:22.227Z,98580.59
2022-12-20T12:52:46.603Z,98568.16
2022-12-20T12:53:56.934Z,98573.09
2022-12-20T12:55:03.194Z,98575.53
2022-12-20T12:56:45.475Z,98571.44
2022-12-20T12:57:57.928Z,98576.25
2022-12-20T12:59:54.729Z,98571.03
2022-12-20T13:01:05.205Z,98583.06
2022-12-20T13:02:37.546Z,98582.84
2022-12-20T13:04:09.731Z,98584.91
2022-12-20T13:05:38.675Z,98583.41
2022-12-20T13:07:00.340Z,98583.22
2022-12-20T13:08:17.712Z,98591.41
2022-12-20T13:09:38.144Z,98587.94
2022-12-20T13:11:06.199Z,98578.38
2022-12-20T13:13:02.879Z,98583.00
2022-12-20T13:14:30.895Z,98570.97
2022-12-20T13:16:16.908Z,98572.25
2022-12-20T13:17:53.073Z,98575.72
2022-12-20T13:19:16.611Z,98570.50
2022-12-20T13:20:24.541Z,98570.69
2022-12-20T13:21:40.463Z,98563.44
2022-12-20T13:23:17.987Z,98563.13
2022-12-20T13:24:55.235Z,98556.22
2022-12-20T13:25:58.887Z,98560.56
2022-12-20T13:27:24.636Z,98568.31
2022-12-20T13:28:49.631Z,98554.81
2022-12-20T13:30:19.083Z,98569.78
2022-12-20T13:31:36.972Z,98557.81
2022-12-20T13:33:15.832Z,98571.88
2022-12-20T13:34:41.553Z,98577.22
2022-12-20T13:36:19.684Z,98589.78
2022-12-20T13:37:57.361Z,98581.72
2022-12-20T13:39:33.650Z,98583.28
2022-12-20T13:40:45.616Z,98585.00
2022-12-20T13:42:18.573Z,98583.50
2022-12-20T13:43:37.225Z,98596.19
2022-12-20T13:44:48.790Z,98587.41
2022-12-20T13:46:06.242Z,98591.69
2022-12-20T13:47:37.680Z,98588.31
2022-12-20T13:48:54.207Z,98587.28
2022-12-20T13:50:05.808Z,98599.47
2022-12-20T13:51:10.683Z,98596.63
2022-12-20T13:52:33.158Z,98582.16
2022-12-20T13:53:42.436Z,98596.41
2022-12-20T13:54:50.790Z,98587.94
2022-12-20T13:55:59.236Z,98592.88
2022-12-20T13:57:06.701Z,98603.03
2022-12-20T13:58:25.166Z,98587.84
2022-12-20T13:59:33.837Z,98581.31
2022-12-20T14:00:41.520Z,98581.97
2022-12-20T14:01:57.062Z,98582.81
2022-12-20T14:03:03.695Z,98584.59
2022-12-20T14:04:10.959Z,98589.94
2022-12-20T14:05:26.728Z,98589.19
2022-12-20T14:06:33.186Z,98590.53
2022-12-20T14:07:41.992Z,98585.94
2022-12-20T14:08:52.187Z,98599.03
2022-12-20T14:10:02.968Z,98585.22